createdAt,value
2023-05-22T00:03:37.066Z,18.18
2023-05-22T00:08:37.363Z,18.12
2023-05-22T00:13:36.848Z,18.08
2023-05-22T00:18:37.604Z,18.02
2023-05-22T00:23:35.173Z,17.95
2023-05-22T00:28:34.591Z,17.86
2023-05-22T00:33:34.892Z,17.76
2023-05-22T00:38:34.166Z,17.65
2023-05-22T00:43:32.639Z,17.58
2023-05-22T00:48:32.178Z,17.53
2023-05-22T00:53:32.405Z,17.44
2023-05-22T00:58:31.810Z,17.37
2023-05-22T00:59:53.474Z,17.35
2023-05-22T01:59:12.936Z,16.56
2023-05-22T02:04:20.505Z,16.58
2023-05-22T02:49:19.204Z,16.02
2023-05-22T02:58:51.463Z,15.96
2023-05-22T03:03:50.887Z,15.98
2023-05-22T03:08:50.563Z,15.97
2023-05-22T03:13:49.660Z,15.92
2023-05-22T03:18:49.673Z,15.91
2023-05-22T03:23:49.483Z,15.83
2023-05-22T03:28:47.996Z,15.79
2023-05-22T03:33:47.500Z,15.76
2023-05-22T03:38:47.488Z,15.71
2023-05-22T03:43:47.093Z,15.68
2023-05-22T03:48:46.013Z,15.65
2023-05-22T03:53:45.350Z,15.62
2023-05-22T03:58:45.286Z,15.61
2023-05-22T04:03:44.711Z,15.6
2023-05-22T04:08:45.397Z,15.6
2023-05-22T04:13:42.618Z,15.59
2023-05-22T04:18:42.305Z,15.6
2023-05-22T04:23:42.376Z,15.61
2023-05-22T04:28:42.069Z,15.63
2023-05-22T04:33:40.641Z,15.69
2023-05-22T04:38:40.358Z,15.84
2023-05-22T04:43:40.434Z,15.99
2023-05-22T04:48:39.611Z,16.16
2023-05-22T04:53:38.991Z,16.28
2023-05-22T04:58:38.576Z,16.37
2023-05-22T04:59:59.492Z,16.4
2023-05-22T05:29:55.663Z,16.91
2023-05-22T05:58:57.729Z,17.2
2023-05-22T06:03:57.951Z,17.12
2023-05-22T06:08:57.413Z,17.11
2023-05-22T06:13:56.057Z,16.99
2023-05-22T06:18:55.789Z,16.71
2023-05-22T06:23:55.966Z,16.26
2023-05-22T06:28:55.274Z,15.84
2023-05-22T06:33:54.555Z,15.63
2023-05-22T06:38:54.493Z,15.43
2023-05-22T06:43:54.439Z,15.29
2023-05-22T06:48:53.971Z,15.21
2023-05-22T06:53:52.440Z,15.19
2023-05-22T06:58:52.031Z,15.2
2023-05-22T07:03:51.841Z,15.18
2023-05-22T07:08:51.394Z,15.12
2023-05-22T07:13:50.686Z,15.1
2023-05-22T07:18:50.340Z,15.07
2023-05-22T07:23:50.042Z,15.01
2023-05-22T07:28:49.399Z,14.95
2023-05-22T07:33:50.067Z,14.91
2023-05-22T07:38:47.724Z,14.82
2023-05-22T07:43:47.514Z,14.75
2023-05-22T07:48:46.575Z,14.73
2023-05-22T07:53:46.110Z,14.76
2023-05-22T07:58:44.650Z,14.83
2023-05-22T08:03:44.301Z,14.9
2023-05-22T08:08:44.596Z,14.97
2023-05-22T08:13:42.373Z,15.01
2023-05-22T08:18:41.844Z,15.03
2023-05-22T08:23:41.840Z,15.07
2023-05-22T08:28:41.204Z,15.12
2023-05-22T08:33:40.467Z,15.23
2023-05-22T08:38:40.176Z,15.29
2023-05-22T08:43:40.317Z,15.38
2023-05-22T08:48:39.624Z,15.48
2023-05-22T08:53:40.519Z,15.56
2023-05-22T08:58:37.957Z,15.67
2023-05-22T08:59:59.028Z,15.68
2023-05-22T09:04:59.495Z,15.77
2023-05-22T09:09:58.741Z,15.88
2023-05-22T09:14:57.276Z,15.87
2023-05-22T09:19:56.928Z,15.87
2023-05-22T09:24:56.989Z,15.9
2023-05-22T09:29:56.442Z,15.94
2023-05-22T09:39:55.262Z,15.96
2023-05-22T09:44:55.183Z,16.01
2023-05-22T09:49:55.169Z,16
2023-05-22T09:54:53.585Z,16.01
2023-05-22T09:59:11.525Z,16.12
2023-05-22T10:04:11.659Z,16.21
2023-05-22T10:09:10.906Z,16.36
2023-05-22T10:14:21.685Z,16.4
2023-05-22T10:19:20.838Z,16.45
2023-05-22T10:24:20.327Z,16.54
2023-05-22T10:29:21.712Z,16.42
2023-05-22T10:34:18.865Z,16.46
2023-05-22T10:39:18.710Z,16.53
2023-05-22T10:44:19.853Z,16.51
2023-05-22T10:49:16.796Z,16.44
2023-05-22T10:54:16.421Z,16.49
2023-05-22T10:58:53.990Z,16.52
2023-05-22T11:03:53.263Z,16.56
2023-05-22T11:08:52.900Z,16.54
2023-05-22T11:13:52.522Z,16.52
2023-05-22T11:18:52.071Z,16.48
2023-05-22T11:23:52.874Z,16.59
2023-05-22T11:28:49.666Z,16.76
2023-05-22T11:33:49.876Z,16.98
2023-05-22T11:38:49.093Z,17.2
2023-05-22T11:43:48.288Z,17.45
2023-05-22T11:49:42.328Z,17.53
2023-05-22T11:53:47.588Z,17.69
2023-05-22T11:58:48.739Z,17.85
2023-05-22T12:03:46.510Z,17.96
2023-05-22T12:08:46.364Z,18.12
2023-05-22T12:13:45.784Z,18.23
2023-05-22T12:18:45.008Z,18.29
2023-05-22T12:23:44.335Z,18.4
2023-05-22T12:28:44.134Z,18.52
2023-05-22T12:33:43.327Z,18.58
2023-05-22T12:38:44.108Z,18.78
2023-05-22T12:43:41.480Z,18.93
2023-05-22T12:48:41.167Z,18.94
2023-05-22T12:53:41.381Z,18.95
2023-05-22T12:58:41.046Z,18.94
2023-05-22T13:03:39.696Z,18.95
2023-05-22T13:08:39.989Z,18.96
2023-05-22T13:13:39.319Z,19.01
2023-05-22T13:18:40.151Z,19.09
2023-05-22T13:23:37.631Z,19.12
2023-05-22T13:28:37.361Z,19.18
2023-05-22T13:33:37.348Z,19.37
2023-05-22T13:38:37.269Z,19.67
2023-05-22T13:43:35.817Z,19.95
2023-05-22T13:48:35.554Z,20.11
2023-05-22T13:53:35.628Z,20.2
2023-05-22T13:58:34.950Z,20.27
2023-05-22T13:59:56.618Z,20.29
2023-05-22T14:34:53.607Z,20.86
2023-05-22T14:39:52.964Z,20.64
2023-05-22T14:59:12.621Z,21.06
2023-05-22T15:04:20.490Z,21.33
2023-05-22T15:09:20.936Z,21.48
2023-05-22T15:14:20.593Z,21.47
2023-05-22T15:19:18.469Z,21.34
2023-05-22T15:24:18.634Z,21.25
2023-05-22T15:29:18.406Z,21.15
2023-05-22T15:34:18.282Z,21.02
2023-05-22T15:39:18.318Z,20.95
2023-05-22T15:44:18.197Z,20.87
2023-05-22T15:49:19.387Z,20.63
2023-05-22T15:54:16.488Z,20.55
2023-05-22T15:58:51.577Z,20.56
2023-05-22T16:03:50.978Z,20.6
2023-05-22T16:08:50.079Z,20.58
2023-05-22T16:13:49.878Z,20.55
2023-05-22T16:18:49.763Z,20.52
2023-05-22T16:23:49.577Z,20.52
2023-05-22T16:28:48.028Z,20.59
2023-05-22T16:33:47.593Z,20.59
2023-05-22T16:38:47.738Z,20.64
2023-05-22T16:43:47.256Z,20.64
2023-05-22T16:48:46.103Z,20.57
2023-05-22T16:53:45.582Z,20.49
2023-05-22T16:58:45.246Z,20.4
2023-05-22T17:03:44.541Z,20.25
2023-05-22T17:08:45.168Z,20.17
2023-05-22T17:13:42.597Z,20.09
2023-05-22T17:18:42.257Z,20.01
2023-05-22T17:23:42.581Z,19.89
2023-05-22T17:28:41.955Z,19.87
2023-05-22T17:33:40.817Z,19.92
2023-05-22T17:38:40.275Z,19.92
2023-05-22T17:43:40.601Z,19.93
2023-05-22T17:48:39.549Z,19.85
2023-05-22T17:53:39.291Z,19.68
2023-05-22T17:58:38.344Z,19.56
2023-05-22T17:59:59.295Z,19.49
2023-05-22T18:04:58.810Z,19.26
2023-05-22T18:09:57.119Z,19.1
2023-05-22T18:14:56.569Z,18.98
2023-05-22T18:19:56.661Z,18.86
2023-05-22T18:24:55.967Z,18.73
2023-05-22T18:29:55.281Z,18.6
2023-05-22T18:34:54.621Z,18.5
2023-05-22T18:39:54.480Z,18.36
2023-05-22T18:44:53.794Z,18.27
2023-05-22T18:49:54.753Z,18.16
2023-05-22T18:54:52.055Z,18.04
2023-05-22T18:58:56.157Z,17.93
2023-05-22T19:03:55.231Z,17.79
2023-05-22T19:08:54.905Z,17.69
2023-05-22T19:13:53.245Z,17.53
2023-05-22T19:18:53.251Z,17.37
2023-05-22T19:23:53.003Z,17.18
2023-05-22T19:28:52.515Z,16.98
2023-05-22T19:33:52.005Z,16.82
2023-05-22T19:38:53.391Z,16.68
2023-05-22T19:43:51.862Z,16.58
2023-05-22T19:48:51.327Z,16.53
2023-05-22T19:53:49.806Z,16.46
2023-05-22T19:58:49.248Z,16.41
2023-05-22T20:03:49.664Z,16.28
2023-05-22T20:08:48.780Z,16.15
2023-05-22T20:13:48.105Z,15.98
2023-05-22T20:18:47.439Z,15.84
2023-05-22T20:23:47.396Z,15.69
2023-05-22T20:28:46.312Z,15.51
2023-05-22T20:33:47.251Z,15.33
2023-05-22T20:38:44.442Z,15.19
2023-05-22T20:43:44.149Z,15.05
2023-05-22T20:48:43.234Z,14.83
2023-05-22T20:53:42.590Z,14.69
2023-05-22T20:58:41.036Z,14.55
2023-05-22T21:03:40.581Z,14.4
2023-05-22T21:08:40.569Z,14.26
2023-05-22T21:13:40.005Z,14.14
2023-05-22T21:18:37.968Z,14.06
2023-05-22T21:23:37.850Z,13.98
2023-05-22T21:28:37.893Z,13.91
2023-05-22T21:33:37.261Z,13.83
2023-05-22T21:38:35.898Z,13.76
2023-05-22T21:43:35.506Z,13.75
2023-05-22T21:48:35.451Z,13.76
2023-05-22T21:53:34.857Z,13.73
2023-05-22T21:58:33.914Z,13.71
2023-05-22T21:59:54.858Z,13.71
2023-05-22T22:09:54.098Z,13.71
2023-05-22T22:44:48.526Z,13.43
2023-05-22T22:59:13.102Z,13.39
2023-05-22T23:04:12.688Z,13.31
2023-05-22T23:09:12.955Z,13.21
2023-05-22T23:14:12.451Z,13.19
2023-05-22T23:19:11.031Z,13.21
2023-05-22T23:24:20.912Z,13.21
2023-05-22T23:29:20.467Z,13.21
2023-05-22T23:34:21.765Z,13.21
2023-05-22T23:39:18.821Z,13.24
2023-05-22T23:44:18.356Z,13.28
2023-05-22T23:49:19.579Z,13.28
2023-05-22T23:54:16.578Z,13.29
2023-05-22T23:58:54.857Z,13.3
